createdAt,value
2022-08-05T00:00:11.402Z,18.87
2022-08-05T00:03:03.361Z,18.90
2022-08-05T00:06:04.637Z,18.87
2022-08-05T00:08:53.789Z,18.73
2022-08-05T00:11:48.700Z,17.47
2022-08-05T00:14:43.740Z,18.80
2022-08-05T00:17:34.996Z,19.43
2022-08-05T00:20:22.098Z,19.30
2022-08-05T00:23:16.026Z,19.00
2022-08-05T00:26:03.285Z,18.83
2022-08-05T00:28:51.227Z,18.07
2022-08-05T00:31:54.290Z,17.77
2022-08-05T00:35:04.855Z,18.87
2022-08-05T00:37:54.096Z,17.83
2022-08-05T00:40:53.809Z,18.60
2022-08-05T00:43:46.516Z,18.10
2022-08-05T00:46:42.619Z,18.03
2022-08-05T00:49:32.369Z,17.97
2022-08-05T00:52:28.787Z,18.00
2022-08-05T00:55:16.406Z,17.70
2022-08-05T00:58:05.918Z,17.90
2022-08-05T01:00:58.582Z,16.73
2022-08-05T01:03:45.651Z,16.60
2022-08-05T01:06:37.248Z,14.40
2022-08-05T01:09:24.335Z,16.93
2022-08-05T01:12:20.462Z,16.33
2022-08-05T01:15:18.139Z,16.30
2022-08-05T01:18:23.783Z,17.53
2022-08-05T01:21:52.301Z,18.00
2022-08-05T01:24:50.620Z,16.07
2022-08-05T01:28:11.546Z,17.13
2022-08-05T01:31:15.569Z,20.83
2022-08-05T01:34:26.684Z,18.13
2022-08-05T01:37:24.409Z,18.97
2022-08-05T01:40:17.897Z,19.60
2022-08-05T01:43:08.198Z,22.10
2022-08-05T01:46:16.430Z,22.60
2022-08-05T01:52:26.154Z,23.90
2022-08-05T01:55:16.815Z,23.63
2022-08-05T01:58:15.705Z,25.67
2022-08-05T02:01:07.448Z,25.07
2022-08-05T02:03:57.710Z,25.23
2022-08-05T02:06:45.208Z,26.37
2022-08-05T02:09:32.839Z,25.47
2022-08-05T02:12:33.183Z,24.77
2022-08-05T02:15:34.087Z,25.10
2022-08-05T02:18:31.053Z,24.20
2022-08-05T02:21:25.233Z,20.77
2022-08-05T02:24:19.466Z,24.23
2022-08-05T02:27:12.801Z,21.60
2022-08-05T02:30:02.082Z,22.83
2022-08-05T02:32:52.663Z,23.37
2022-08-05T02:35:50.006Z,21.73
2022-08-05T02:38:53.426Z,22.07
2022-08-05T02:42:00.448Z,20.67
2022-08-05T02:44:50.126Z,21.63
2022-08-05T02:48:11.995Z,22.27
2022-08-05T02:50:50.659Z,20.93
2022-08-05T02:53:40.428Z,20.80
2022-08-05T02:56:39.748Z,21.03
2022-08-05T02:59:47.766Z,20.70
2022-08-05T03:06:55.098Z,21.50
2022-08-05T03:08:52.155Z,22.73
2022-08-05T03:11:54.979Z,23.13
2022-08-05T03:14:46.104Z,21.93
2022-08-05T03:17:41.746Z,22.27
2022-08-05T03:20:29.174Z,22.73
2022-08-05T03:23:20.573Z,21.00
2022-08-05T03:26:31.461Z,22.13
2022-08-05T03:29:18.830Z,18.23
2022-08-05T03:32:09.161Z,20.57
2022-08-05T03:34:58.607Z,19.50
2022-08-05T03:37:46.736Z,20.70
2022-08-05T03:40:33.971Z,21.53
2022-08-05T03:44:09.571Z,20.47
2022-08-05T03:46:32.778Z,20.43
2022-08-05T03:49:19.955Z,21.33
2022-08-05T03:52:48.461Z,19.33
2022-08-05T03:56:09.454Z,18.60
2022-08-05T03:58:38.300Z,19.07
2022-08-05T04:01:32.375Z,18.50
2022-08-05T04:04:21.545Z,16.83
2022-08-05T04:07:10.939Z,18.00
2022-08-05T04:09:58.577Z,17.03
2022-08-05T04:12:49.987Z,17.07
2022-08-05T04:15:37.520Z,16.97
2022-08-05T04:18:25.578Z,15.67
2022-08-05T04:21:13.090Z,14.47
2022-08-05T04:24:22.476Z,13.73
2022-08-05T04:27:10.025Z,14.10
2022-08-05T04:29:57.062Z,12.97
2022-08-05T04:32:44.041Z,12.33
2022-08-05T04:36:10.923Z,13.03
2022-08-05T04:38:39.938Z,12.67
2022-08-05T04:41:36.570Z,12.03
2022-08-05T04:44:30.143Z,11.90
2022-08-05T04:47:20.001Z,12.93
2022-08-05T04:50:11.556Z,11.47
2022-08-05T04:52:58.814Z,11.17
2022-08-05T04:56:00.210Z,11.10
2022-08-05T04:58:55.401Z,12.20
2022-08-05T05:02:06.812Z,10.63
2022-08-05T05:04:51.354Z,10.17
2022-08-05T05:07:38.621Z,9.60
2022-08-05T05:10:40.889Z,10.17
2022-08-05T05:13:43.256Z,9.17
2022-08-05T05:16:30.973Z,8.90
2022-08-05T05:19:23.605Z,7.80
2022-08-05T05:22:23.888Z,8.17
2022-08-05T05:25:16.648Z,6.97
2022-08-05T05:28:04.746Z,6.60
2022-08-05T05:30:52.386Z,6.57
2022-08-05T05:33:57.071Z,6.10
2022-08-05T05:36:47.048Z,6.30
2022-08-05T05:39:35.145Z,5.83
2022-08-05T05:42:23.276Z,5.77
2022-08-05T05:45:11.319Z,5.97
2022-08-05T05:48:10.072Z,6.07
2022-08-05T05:50:57.214Z,6.90
2022-08-05T05:53:46.109Z,7.23
2022-08-05T05:56:46.465Z,7.27
2022-08-05T05:59:40.194Z,7.67
2022-08-05T06:02:37.648Z,6.73
2022-08-05T06:05:24.986Z,7.13
2022-08-05T06:08:13.626Z,6.83
2022-08-05T06:11:01.443Z,6.50
2022-08-05T06:13:53.620Z,6.90
2022-08-05T06:16:40.969Z,7.23
2022-08-05T06:19:34.228Z,7.40
2022-08-05T06:22:34.073Z,6.67
2022-08-05T06:25:59.388Z,6.50
2022-08-05T06:28:28.633Z,7.30
2022-08-05T06:31:18.049Z,6.57
2022-08-05T06:34:09.161Z,7.87
2022-08-05T06:36:58.136Z,8.00
2022-08-05T06:39:45.820Z,8.67
2022-08-05T06:42:33.497Z,7.90
2022-08-05T06:45:44.662Z,8.70
2022-08-05T06:48:55.760Z,8.47
2022-08-05T06:51:36.417Z,9.20
2022-08-05T06:54:28.182Z,10.03
2022-08-05T06:58:02.640Z,8.97
2022-08-05T07:00:26.659Z,9.70
2022-08-05T07:03:17.132Z,9.30
2022-08-05T07:06:06.059Z,8.43
2022-08-05T07:09:04.178Z,8.90
2022-08-05T07:11:52.377Z,8.33
2022-08-05T07:14:57.814Z,8.57
2022-08-05T07:18:08.337Z,9.17
2022-08-05T07:20:52.396Z,8.63
2022-08-05T07:23:49.104Z,9.17
2022-08-05T07:26:37.226Z,7.83
2022-08-05T07:29:25.348Z,8.30
2022-08-05T07:32:35.883Z,8.30
2022-08-05T07:36:03.736Z,6.33
2022-08-05T07:38:33.803Z,8.03
2022-08-05T07:42:06.893Z,6.67
2022-08-05T07:44:31.260Z,6.80
2022-08-05T07:47:18.563Z,6.70
2022-08-05T07:50:16.468Z,6.50
2022-08-05T07:53:04.168Z,6.50
2022-08-05T07:56:06.368Z,5.70
2022-08-05T07:58:59.220Z,6.67
2022-08-05T08:01:52.041Z,6.40
2022-08-05T08:04:47.346Z,6.23
2022-08-05T08:07:39.720Z,6.57
2022-08-05T08:10:41.996Z,6.07
2022-08-05T08:13:43.016Z,5.87
2022-08-05T08:16:50.721Z,6.23
2022-08-05T08:20:43.615Z,6.97
2022-08-05T08:23:05.298Z,6.67
2022-08-05T08:25:59.897Z,8.07
2022-08-05T08:29:02.249Z,7.33
2022-08-05T08:31:56.079Z,7.70
2022-08-05T08:34:43.350Z,7.90
2022-08-05T08:37:30.477Z,8.23
2022-08-05T08:40:24.241Z,8.40
2022-08-05T08:45:16.212Z,8.83
2022-08-05T08:46:24.162Z,7.80
2022-08-05T08:50:14.572Z,8.40
2022-08-05T08:52:32.285Z,9.27
2022-08-05T08:56:01.847Z,8.97
2022-08-05T08:58:43.910Z,10.07
2022-08-05T09:01:34.658Z,11.20
2022-08-05T09:04:30.437Z,11.23
2022-08-05T09:07:19.650Z,11.63
2022-08-05T09:10:15.768Z,12.20
2022-08-05T09:13:05.928Z,12.83
2022-08-05T09:15:55.291Z,12.00
2022-08-05T09:18:44.723Z,12.80
2022-08-05T09:22:31.218Z,11.23
2022-08-05T09:24:38.974Z,9.60
2022-08-05T09:28:04.565Z,9.13
2022-08-05T09:31:00.997Z,8.10
2022-08-05T09:34:11.840Z,7.80
2022-08-05T09:37:00.225Z,7.60
2022-08-05T09:39:55.873Z,8.73
2022-08-05T09:42:44.061Z,9.57
2022-08-05T09:46:07.169Z,9.70
2022-08-05T09:49:06.923Z,10.43
2022-08-05T09:51:53.021Z,11.00
2022-08-05T09:54:52.781Z,12.17
2022-08-05T09:57:43.231Z,10.90
2022-08-05T10:00:30.846Z,13.10
2022-08-05T10:03:18.771Z,14.10
2022-08-05T10:06:15.800Z,14.83
2022-08-05T10:09:27.837Z,14.13
2022-08-05T10:12:30.757Z,15.57
2022-08-05T10:15:27.206Z,15.20
2022-08-05T10:18:16.774Z,14.80
2022-08-05T10:21:11.820Z,14.93
2022-08-05T10:24:07.568Z,16.17
2022-08-05T10:27:00.529Z,15.00
2022-08-05T10:30:41.897Z,12.63
2022-08-05T10:33:02.898Z,9.60
2022-08-05T10:35:59.279Z,11.07
2022-08-05T10:38:50.042Z,10.10
2022-08-05T10:45:21.206Z,9.10
2022-08-05T10:52:02.876Z,8.50
2022-08-05T10:55:10.708Z,6.30
2022-08-05T10:58:11.695Z,5.60
2022-08-05T11:01:07.685Z,4.90
2022-08-05T11:04:08.211Z,4.37
2022-08-05T11:07:01.999Z,4.10
2022-08-05T11:10:09.571Z,4.30
2022-08-05T11:13:10.335Z,4.23
2022-08-05T11:16:56.198Z,4.67
2022-08-05T11:28:38.221Z,5.90
2022-08-05T11:34:54.401Z,5.87
2022-08-05T11:38:29.585Z,5.10
2022-08-05T11:44:54.166Z,5.70
2022-08-05T11:47:54.561Z,4.90
2022-08-05T11:50:42.870Z,3.50
2022-08-05T11:56:52.069Z,4.00
2022-08-05T11:59:49.975Z,3.97
2022-08-05T12:02:39.992Z,3.90
2022-08-05T12:05:36.297Z,4.70
2022-08-05T12:08:27.732Z,4.53
2022-08-05T12:11:40.307Z,5.17
2022-08-05T12:14:47.433Z,4.73
2022-08-05T12:18:04.164Z,4.67
2022-08-05T12:20:44.048Z,4.60
2022-08-05T12:23:32.739Z,5.10
2022-08-05T12:26:20.084Z,4.50
2022-08-05T12:29:27.730Z,3.90
2022-08-05T12:32:14.727Z,3.67
2022-08-05T12:35:05.641Z,3.67
2022-08-05T12:37:55.655Z,3.27
2022-08-05T12:40:43.518Z,3.50
2022-08-05T12:43:32.154Z,3.77
2022-08-05T12:46:29.394Z,4.23
2022-08-05T12:49:19.021Z,3.63
2022-08-05T12:52:23.899Z,3.40
2022-08-05T12:55:23.503Z,3.50
2022-08-05T12:58:48.496Z,3.33
2022-08-05T13:02:03.463Z,4.40
2022-08-05T13:04:54.440Z,3.70
2022-08-05T13:08:01.104Z,4.50
2022-08-05T13:10:53.143Z,3.93
2022-08-05T13:14:05.926Z,3.80
2022-08-05T13:17:01.519Z,3.63
2022-08-05T13:20:33.128Z,3.07
2022-08-05T13:23:24.169Z,3.17
2022-08-05T13:26:29.846Z,3.20
2022-08-05T13:29:18.828Z,2.70
2022-08-05T13:32:10.663Z,3.30
2022-08-05T13:34:58.565Z,3.13
2022-08-05T13:37:57.810Z,2.87
2022-08-05T13:41:01.037Z,3.03
2022-08-05T13:43:54.950Z,2.60
2022-08-05T13:47:01.752Z,3.07
2022-08-05T13:49:58.881Z,3.43
2022-08-05T13:52:49.900Z,3.20
2022-08-05T13:55:40.950Z,3.80
2022-08-05T13:58:30.552Z,3.80
2022-08-05T14:01:18.677Z,4.00
2022-08-05T14:04:26.420Z,3.97
2022-08-05T14:07:26.098Z,3.93
2022-08-05T14:10:30.815Z,3.67
2022-08-05T14:13:18.682Z,3.70
2022-08-05T14:16:11.516Z,3.77
2022-08-05T14:19:04.432Z,3.60
2022-08-05T14:22:09.477Z,3.67
2022-08-05T14:24:59.163Z,4.20
2022-08-05T14:27:48.506Z,4.23
2022-08-05T14:30:35.651Z,3.90
2022-08-05T14:33:23.831Z,3.83
2022-08-05T14:36:11.442Z,3.10
2022-08-05T14:38:58.932Z,3.20
2022-08-05T14:42:15.657Z,3.10
2022-08-05T14:44:57.309Z,2.38
2022-08-05T14:48:04.956Z,2.80
2022-08-05T14:50:53.241Z,2.40
2022-08-05T14:53:44.574Z,2.30
2022-08-05T14:56:31.842Z,2.50
2022-08-05T14:59:21.230Z,2.80
2022-08-05T15:02:15.777Z,2.27
2022-08-05T15:05:08.744Z,2.10
2022-08-05T15:08:06.473Z,2.15
2022-08-05T15:11:00.366Z,2.28
2022-08-05T15:13:50.344Z,2.50
2022-08-05T15:16:37.577Z,2.20
2022-08-05T15:19:27.625Z,1.80
2022-08-05T15:22:16.196Z,2.20
2022-08-05T15:25:11.896Z,1.70
2022-08-05T15:28:01.977Z,2.08
2022-08-05T15:30:51.538Z,2.13
2022-08-05T15:34:05.657Z,2.00
2022-08-05T15:36:47.299Z,2.15
2022-08-05T15:41:00.503Z,1.98
2022-08-05T15:42:56.780Z,2.15
2022-08-05T15:45:47.697Z,1.98
2022-08-05T15:48:52.493Z,2.10
2022-08-05T15:52:10.343Z,2.00
2022-08-05T15:54:53.054Z,1.58
2022-08-05T15:57:42.050Z,1.33
2022-08-05T16:00:50.319Z,1.45
2022-08-05T16:03:43.736Z,1.60
2022-08-05T16:06:31.218Z,1.15
2022-08-05T16:09:18.295Z,0.80
2022-08-05T16:12:09.386Z,0.90
2022-08-05T16:14:58.518Z,0.60
2022-08-05T16:17:49.715Z,0.90
2022-08-05T16:20:45.152Z,0.80
2022-08-05T16:23:53.809Z,0.67
2022-08-05T16:27:01.848Z,0.80
2022-08-05T16:29:58.667Z,1.00
2022-08-05T16:32:45.757Z,0.77
2022-08-05T16:35:34.629Z,0.93
2022-08-05T16:38:30.525Z,0.90
2022-08-05T16:42:14.116Z,1.00
2022-08-05T16:44:40.279Z,0.70
2022-08-05T16:47:36.314Z,0.60
2022-08-05T16:50:35.814Z,0.80
2022-08-05T16:53:32.257Z,0.80
2022-08-05T16:56:21.643Z,0.80
2022-08-05T16:59:10.690Z,0.60
2022-08-05T17:01:59.344Z,0.73
2022-08-05T17:04:48.583Z,0.80
2022-08-05T17:07:43.664Z,0.93
2022-08-05T17:10:41.910Z,0.80
2022-08-05T17:13:37.846Z,0.83
2022-08-05T17:16:32.872Z,0.80
2022-08-05T17:19:21.286Z,0.93
2022-08-05T17:22:08.462Z,0.80
2022-08-05T17:24:58.667Z,1.10
2022-08-05T17:27:47.367Z,0.60
2022-08-05T17:30:34.446Z,1.00
2022-08-05T17:33:38.831Z,1.00
2022-08-05T17:36:33.989Z,0.90
2022-08-05T17:39:23.806Z,0.87
2022-08-05T17:42:28.386Z,0.80
2022-08-05T17:45:21.195Z,1.10
2022-08-05T17:48:08.743Z,0.80
2022-08-05T17:50:55.749Z,0.80
2022-08-05T17:53:42.882Z,0.70
2022-08-05T17:56:38.114Z,0.70
2022-08-05T17:59:25.473Z,0.80
2022-08-05T18:02:13.017Z,0.87
2022-08-05T18:05:07.536Z,0.80
2022-08-05T18:07:56.738Z,0.90
2022-08-05T18:10:44.129Z,0.70
2022-08-05T18:13:36.864Z,0.80
2022-08-05T18:16:33.227Z,0.80
2022-08-05T18:19:23.084Z,1.10
2022-08-05T18:22:17.966Z,0.70
2022-08-05T18:25:06.483Z,0.70
2022-08-05T18:27:53.888Z,1.00
2022-08-05T18:30:41.006Z,0.90
2022-08-05T18:33:28.758Z,0.80
2022-08-05T18:36:38.144Z,0.70
2022-08-05T18:40:30.933Z,1.10
2022-08-05T18:42:41.636Z,0.80
2022-08-05T18:45:41.202Z,0.80
2022-08-05T18:48:32.987Z,0.90
2022-08-05T18:52:03.890Z,0.90
2022-08-05T18:54:49.834Z,0.80
2022-08-05T18:57:43.135Z,1.20
2022-08-05T19:00:37.595Z,0.87
2022-08-05T19:03:53.421Z,1.03
2022-08-05T19:06:44.681Z,0.90
2022-08-05T19:09:39.122Z,0.83
2022-08-05T19:12:29.559Z,0.80
2022-08-05T19:15:59.192Z,1.00
2022-08-05T19:18:26.990Z,1.00
2022-08-05T19:21:15.749Z,0.90
2022-08-05T19:24:09.032Z,0.80
2022-08-05T19:27:00.183Z,0.83
2022-08-05T19:29:52.025Z,0.77
2022-08-05T19:32:39.175Z,1.00
2022-08-05T19:35:26.173Z,1.30
2022-08-05T19:38:36.433Z,1.10
2022-08-05T19:42:05.591Z,1.00
2022-08-05T19:44:31.078Z,0.83
2022-08-05T19:47:18.178Z,1.60
2022-08-05T19:50:10.452Z,1.00
2022-08-05T19:53:10.649Z,1.17
2022-08-05T19:56:14.842Z,0.80
2022-08-05T19:59:53.803Z,0.90
2022-08-05T20:02:17.571Z,1.00
2022-08-05T20:05:05.457Z,1.20
2022-08-05T20:07:59.023Z,1.13
2022-08-05T20:10:49.459Z,1.00
2022-08-05T20:13:58.761Z,1.27
2022-08-05T20:16:44.744Z,1.10
2022-08-05T20:19:36.293Z,1.27
2022-08-05T20:22:32.082Z,0.73
2022-08-05T20:25:24.691Z,1.07
2022-08-05T20:28:26.858Z,1.10
2022-08-05T20:31:16.426Z,0.80
2022-08-05T20:34:04.005Z,1.00
2022-08-05T20:36:51.282Z,1.00
2022-08-05T20:39:38.503Z,0.93
2022-08-05T20:42:28.301Z,1.20
2022-08-05T20:45:16.613Z,1.10
2022-08-05T20:48:08.567Z,1.00
2022-08-05T20:50:56.262Z,1.07
2022-08-05T20:53:43.518Z,1.07
2022-08-05T20:56:43.517Z,1.20
2022-08-05T20:59:46.227Z,1.23
2022-08-05T21:02:43.688Z,1.00
2022-08-05T21:05:53.770Z,1.20
2022-08-05T21:08:44.026Z,1.27
2022-08-05T21:12:09.932Z,1.20
2022-08-05T21:14:38.869Z,1.20
2022-08-05T21:17:27.080Z,1.03
2022-08-05T21:20:15.542Z,1.10
2022-08-05T21:23:20.620Z,1.37
2022-08-05T21:26:14.325Z,1.30
2022-08-05T21:29:03.770Z,1.30
2022-08-05T21:31:51.173Z,1.30
2022-08-05T21:34:38.639Z,1.30
2022-08-05T21:37:26.840Z,1.33
2022-08-05T21:40:14.195Z,1.27
2022-08-05T21:43:05.520Z,1.30
2022-08-05T21:45:56.607Z,1.60
2022-08-05T21:48:45.047Z,1.30
2022-08-05T21:52:27.402Z,1.50
2022-08-05T21:54:41.383Z,1.33
2022-08-05T21:57:31.153Z,1.50
2022-08-05T22:00:18.977Z,1.40
2022-08-05T22:03:05.970Z,1.43
2022-08-05T22:05:53.014Z,1.50
2022-08-05T22:08:42.778Z,1.30
2022-08-05T22:11:34.486Z,1.33
2022-08-05T22:14:35.106Z,1.10
2022-08-05T22:17:25.098Z,1.40
2022-08-05T22:20:14.834Z,1.33
2022-08-05T22:23:22.359Z,1.30
2022-08-05T22:26:28.260Z,1.43
2022-08-05T22:29:17.497Z,1.23
2022-08-05T22:32:06.342Z,1.20
2022-08-05T22:34:57.153Z,1.30
2022-08-05T22:37:59.152Z,1.50
2022-08-05T22:40:49.468Z,1.27
2022-08-05T22:43:38.158Z,1.40
2022-08-05T22:46:25.855Z,1.27
2022-08-05T22:50:18.204Z,1.10
2022-08-05T22:52:30.418Z,1.30
2022-08-05T22:55:22.908Z,1.60
2022-08-05T22:58:11.618Z,1.10
2022-08-05T23:01:01.494Z,1.70
2022-08-05T23:03:59.032Z,1.23
2022-08-05T23:06:47.752Z,1.20
2022-08-05T23:09:58.310Z,1.50
2022-08-05T23:12:43.742Z,1.30
2022-08-05T23:15:34.983Z,1.30
2022-08-05T23:18:23.304Z,1.40
2022-08-05T23:21:10.432Z,1.33
2022-08-05T23:23:57.513Z,1.30
2022-08-05T23:26:45.163Z,1.30
2022-08-05T23:29:34.948Z,1.40
2022-08-05T23:32:23.773Z,1.50
2022-08-05T23:35:11.152Z,1.33
2022-08-05T23:37:58.177Z,1.40
2022-08-05T23:40:49.412Z,1.40
2022-08-05T23:44:04.626Z,1.53
2022-08-05T23:46:44.277Z,1.20
2022-08-05T23:49:33.814Z,1.60
2022-08-05T23:52:36.016Z,1.50
2022-08-05T23:55:31.124Z,1.60
2022-08-05T23:58:31.925Z,1.60
